Time;durP1;ratioP1;P1;durP2;ratioP2;P2;SDS_P1;SDS_P2;PMS_P1;PMS_P2;Temp;Humidity;BMP_temperature;BMP_pressure;BME280_temperature;BME280_humidity;BME280_pressure;Samples;Min_cycle;Max_cycle;Signal;HPM_P1;HPM_P2
2021/01/20 00:01:12;;;;;;;0.00;0.00;;;;;;;9.11;100.00;97181.38;4974129;28;20061;-81
2021/01/20 00:04:15;;;;;;;0.00;0.00;;;;;;;9.12;100.00;97177.31;4973773;28;20066;-80
2021/01/20 00:07:18;;;;;;;0.00;0.00;;;;;;;9.13;100.00;97166.97;4973173;28;20062;-80
2021/01/20 00:10:22;;;;;;;0.00;0.00;;;;;;;9.13;100.00;97164.94;4973262;28;20057;-81
2021/01/20 00:13:25;;;;;;;0.00;0.00;;;;;;;9.14;100.00;97160.88;4973632;28;20061;-80
2021/01/20 00:16:29;;;;;;;0.00;0.00;;;;;;;9.15;100.00;97147.75;4973479;28;20511;-80
2021/01/20 00:19:32;;;;;;;0.00;0.00;;;;;;;9.16;100.00;97144.44;4973904;28;20053;-80
2021/01/20 00:22:36;;;;;;;0.00;0.00;;;;;;;9.18;100.00;97147.41;4974450;28;20053;-80
2021/01/20 00:25:40;;;;;;;0.00;0.00;;;;;;;9.19;100.00;97148.19;4993306;28;20045;-80
2021/01/20 00:28:43;;;;;;;0.00;0.00;;;;;;;9.18;100.00;97139.09;4993072;28;20061;-80
2021/01/20 00:31:46;;;;;;;0.10;0.00;;;;;;;9.18;100.00;97141.88;4993046;28;20510;-81
2021/01/20 00:34:49;;;;;;;0.00;0.00;;;;;;;9.18;100.00;97136.31;4992827;28;20045;-78
2021/01/20 00:37:53;;;;;;;0.00;0.00;;;;;;;9.23;100.00;97125.63;4993224;28;20057;-78
2021/01/20 00:40:56;;;;;;;0.00;0.00;;;;;;;9.22;100.00;97118.59;4992816;28;20502;-79
2021/01/20 00:43:59;;;;;;;0.03;0.00;;;;;;;9.22;100.00;97124.91;4991842;28;20073;-78
2021/01/20 00:47:03;;;;;;;0.00;0.00;;;;;;;9.22;100.00;97107.50;4993003;28;20403;-78
2021/01/20 00:50:07;;;;;;;0.00;0.00;;;;;;;9.22;100.00;97096.38;4992442;28;20054;-79
2021/01/20 00:53:10;;;;;;;0.00;0.00;;;;;;;9.23;100.00;97093.06;4992761;28;20053;-79
2021/01/20 00:56:14;;;;;;;0.00;0.00;;;;;;;9.23;100.00;97086.75;4992656;28;20045;-79
2021/01/20 00:59:19;;;;;;;0.00;0.00;;;;;;;9.23;100.00;97086.75;4992578;28;20061;-80
2021/01/20 01:02:22;;;;;;;0.00;0.00;;;;;;;9.22;100.00;97085.28;4992567;28;20045;-80
2021/01/20 01:05:25;;;;;;;0.00;0.00;;;;;;;9.22;100.00;97071.41;4979816;28;20134;-79
2021/01/20 01:08:28;;;;;;;0.00;0.00;;;;;;;9.22;100.00;97060.28;4992597;28;20058;-80
2021/01/20 01:11:32;;;;;;;0.00;0.00;;;;;;;9.22;100.00;97058.28;4984271;28;20041;-81
2021/01/20 01:14:35;;;;;;;0.00;0.00;;;;;;;9.24;100.00;97066.06;4984269;28;20046;-79
2021/01/20 01:17:39;;;;;;;0.00;0.00;;;;;;;9.25;100.00;97064.78;4995974;28;20399;-80
2021/01/20 01:20:42;;;;;;;0.10;0.00;;;;;;;9.23;100.00;97059.00;4995226;28;20045;-79
2021/01/20 01:23:46;;;;;;;0.00;0.00;;;;;;;9.23;100.00;97054.19;5006534;28;20053;-80
2021/01/20 01:26:49;;;;;;;0.00;0.00;;;;;;;9.25;100.00;97045.34;5006637;28;20045;-79
2021/01/20 01:29:52;;;;;;;0.00;0.00;;;;;;;9.25;100.00;97034.25;4996190;28;20403;-78
2021/01/20 01:32:56;;;;;;;0.00;0.00;;;;;;;9.26;100.00;97041.28;4996367;28;20077;-79
2021/01/20 01:35:59;;;;;;;0.00;0.00;;;;;;;9.27;100.00;97037.22;4996079;28;20057;-79
2021/01/20 01:39:03;;;;;;;0.10;0.00;;;;;;;9.30;100.00;97036.16;4995942;28;20542;-81
2021/01/20 01:42:06;;;;;;;0.00;0.00;;;;;;;9.29;100.00;97040.22;4995976;28;20061;-80
2021/01/20 01:45:10;;;;;;;0.00;0.00;;;;;;;9.29;100.00;97029.84;4996086;28;20510;-79
2021/01/20 01:48:14;;;;;;;0.00;0.00;;;;;;;9.31;100.00;97021.75;4995496;28;20057;-79
2021/01/20 01:51:18;;;;;;;0.00;0.00;;;;;;;9.29;100.00;97015.94;4995802;28;20058;-79
2021/01/20 01:54:21;;;;;;;0.00;0.00;;;;;;;9.30;100.00;97020.25;4995672;28;20418;-79
2021/01/20 01:57:25;;;;;;;0.00;0.00;;;;;;;9.32;100.00;97006.56;4995592;28;20513;-79
2021/01/20 02:00:29;;;;;;;0.00;0.00;;;;;;;9.34;100.00;97014.34;4994646;28;20053;-78
2021/01/20 02:03:33;;;;;;;0.00;0.00;;;;;;;9.36;100.00;97006.22;4995576;28;20415;-80
2021/01/20 02:06:37;;;;;;;0.00;0.00;;;;;;;9.32;100.00;96994.69;4995353;28;20057;-81
2021/01/20 02:09:40;;;;;;;0.00;0.00;;;;;;;9.30;100.00;97006.34;5005885;28;20058;-80
2021/01/20 02:13:05;;;;;;;0.00;0.00;;;;;;;9.29;100.00;97007.63;4994413;28;20093;-80
2021/01/20 02:16:21;;;;;;;0.00;0.00;;;;;;;9.31;100.00;96998.78;4993907;28;20053;-80
2021/01/20 02:19:47;;;;;;;0.00;0.00;;;;;;;9.30;100.00;97005.59;4993814;28;20061;-79
2021/01/20 02:22:54;;;;;;;0.00;0.00;;;;;;;9.29;100.00;97002.06;4992079;28;20054;-79
2021/01/20 02:26:10;;;;;;;0.00;0.00;;;;;;;9.27;100.00;96996.31;4986208;28;20058;-80
2021/01/20 02:29:32;;;;;;;0.00;0.00;;;;;;;9.30;100.00;96988.94;4975582;28;20050;-80
2021/01/20 02:32:37;;;;;;;0.10;0.10;;;;;;;9.30;100.00;96986.16;4974598;28;20075;-81
2021/01/20 02:35:42;;;;;;;0.00;0.00;;;;;;;9.30;100.00;96984.13;4975289;28;20057;-79
2021/01/20 02:38:48;;;;;;;0.00;0.00;;;;;;;9.30;100.00;96977.84;4974178;28;20061;-78
2021/01/20 02:42:00;;;;;;;0.00;0.00;;;;;;;9.27;100.00;96967.81;4975069;28;20476;-79
2021/01/20 02:45:05;;;;;;;0.00;0.00;;;;;;;9.31;100.00;96966.22;4975109;28;20054;-79
2021/01/20 02:48:09;;;;;;;0.00;0.00;;;;;;;9.30;100.00;96963.94;4975145;28;20061;-79
2021/01/20 02:51:15;;;;;;;0.00;0.00;;;;;;;9.29;100.00;96970.81;4974666;28;20054;-79
2021/01/20 02:54:20;;;;;;;0.00;0.00;;;;;;;9.27;100.00;96970.59;4975138;28;20050;-81
2021/01/20 02:57:26;;;;;;;0.00;0.00;;;;;;;9.25;100.00;96962.06;4974157;28;20071;-81
2021/01/20 03:00:31;;;;;;;0.00;0.00;;;;;;;9.24;100.00;96971.66;4974783;28;20062;-80
2021/01/20 03:03:37;;;;;;;0.00;0.00;;;;;;;9.24;100.00;96966.09;4973726;28;20058;-80
2021/01/20 03:06:41;;;;;;;0.00;0.00;;;;;;;9.25;100.00;96979.44;4975000;28;20054;-81
2021/01/20 03:09:45;;;;;;;0.00;0.00;;;;;;;9.22;100.00;96957.56;4974821;28;20062;-81
2021/01/20 03:12:48;;;;;;;0.00;0.00;;;;;;;9.18;100.00;96961.41;4985410;28;20550;-81
2021/01/20 03:15:52;;;;;;;0.00;0.00;;;;;;;9.16;100.00;96960.44;4985055;28;20054;-81
2021/01/20 03:18:56;;;;;;;0.00;0.00;;;;;;;9.15;100.00;96967.28;4974763;28;20058;-80
2021/01/20 03:21:59;;;;;;;0.00;0.00;;;;;;;9.14;100.00;96966.53;4984952;28;20041;-80
2021/01/20 03:25:03;;;;;;;0.00;0.00;;;;;;;9.14;100.00;96963.00;4983972;28;20057;-81
2021/01/20 03:28:06;;;;;;;0.00;0.00;;;;;;;9.11;100.00;96962.06;4974553;28;20045;-80
2021/01/20 03:31:09;;;;;;;0.00;0.00;;;;;;;9.09;100.00;96955.56;4973332;28;20050;-82
2021/01/20 03:34:13;;;;;;;0.00;0.00;;;;;;;9.10;100.00;96957.03;4974040;28;20046;-81
2021/01/20 03:37:16;;;;;;;0.00;0.00;;;;;;;9.10;100.00;96962.59;4974104;28;20567;-81
2021/01/20 03:40:20;;;;;;;0.00;0.00;;;;;;;9.11;100.00;96948.19;4974294;28;20050;-80
2021/01/20 03:43:23;;;;;;;0.00;0.00;;;;;;;9.09;100.00;96944.44;4973305;28;20058;-81
2021/01/20 03:46:27;;;;;;;0.00;0.00;;;;;;;9.08;100.00;96949.25;4974355;28;20058;-81
2021/01/20 03:49:30;;;;;;;0.00;0.00;;;;;;;9.09;100.00;96928.56;4984483;28;20049;-82
2021/01/20 03:52:33;;;;;;;0.00;0.00;;;;;;;9.07;100.00;96930.38;4984393;28;20081;-81
2021/01/20 03:55:37;;;;;;;0.00;0.00;;;;;;;9.03;100.00;96925.13;4973250;28;20050;-81
2021/01/20 03:58:40;;;;;;;0.00;0.00;;;;;;;9.01;100.00;96922.13;4973678;28;20510;-80
2021/01/20 04:01:44;;;;;;;0.00;0.00;;;;;;;9.00;100.00;96915.09;4973809;28;20519;-80
2021/01/20 04:04:47;;;;;;;0.00;0.00;;;;;;;9.02;100.00;96911.78;4973855;28;20054;-80
2021/01/20 04:07:50;;;;;;;0.00;0.00;;;;;;;9.01;100.00;96916.59;4988812;28;20513;-79
2021/01/20 04:10:54;;;;;;;0.00;0.00;;;;;;;9.01;100.00;96913.81;5012145;28;20061;-79
2021/01/20 04:13:57;;;;;;;0.00;0.00;;;;;;;8.98;100.00;96901.03;5012101;28;20057;-81
2021/01/20 04:17:00;;;;;;;0.00;0.00;;;;;;;8.99;100.00;96902.50;5013290;28;20053;-80
2021/01/20 04:20:05;;;;;;;0.00;0.00;;;;;;;8.98;100.00;96892.69;5000717;28;20053;-80
2021/01/20 04:23:09;;;;;;;0.00;0.00;;;;;;;8.97;100.00;96885.63;5020448;28;20051;-80
2021/01/20 04:26:12;;;;;;;0.00;0.00;;;;;;;8.98;100.00;96884.38;5033798;28;20045;-80
2021/01/20 04:29:16;;;;;;;0.00;0.00;;;;;;;8.95;100.00;96879.88;5034037;28;20504;-79
2021/01/20 04:32:19;;;;;;;0.00;0.00;;;;;;;8.95;100.00;96870.81;5032258;28;20049;-81
2021/01/20 04:35:23;;;;;;;0.00;0.00;;;;;;;8.95;100.00;96871.56;5031271;28;20532;-81
2021/01/20 04:38:26;;;;;;;0.00;0.00;;;;;;;8.92;100.00;96864.28;5019676;28;20048;-81
2021/01/20 04:41:32;;;;;;;0.00;0.00;;;;;;;8.93;100.00;96854.69;5032013;28;20492;-80
2021/01/20 04:44:36;;;;;;;0.00;0.00;;;;;;;8.99;100.00;96858.09;5031319;28;20685;-81
2021/01/20 04:47:41;;;;;;;0.00;0.00;;;;;;;8.98;100.00;96859.38;5019808;28;20064;-80
2021/01/20 04:50:50;;;;;;;0.00;0.00;;;;;;;8.98;100.00;96853.09;5031915;28;20056;-80
2021/01/20 04:53:55;;;;;;;0.00;0.00;;;;;;;9.01;100.00;96849.97;5032191;28;20053;-80
2021/01/20 04:56:58;;;;;;;0.00;0.00;;;;;;;9.04;100.00;96854.47;5032310;28;20045;-78
2021/01/20 05:00:07;;;;;;;0.00;0.00;;;;;;;9.08;100.00;96860.41;5031813;28;20056;-78
2021/01/20 05:03:10;;;;;;;0.00;0.00;;;;;;;9.09;100.00;96848.03;5031856;28;20049;-78
2021/01/20 05:06:14;;;;;;;0.00;0.00;;;;;;;9.09;100.00;96845.28;5031831;28;20053;-78
2021/01/20 05:09:18;;;;;;;0.00;0.00;;;;;;;9.09;100.00;96848.03;5031731;28;20060;-77
2021/01/20 05:12:41;;;;;;;0.00;0.00;;;;;;;9.14;100.00;96846.41;5032197;28;20635;-78
2021/01/20 05:15:45;;;;;;;0.00;0.00;;;;;;;9.14;100.00;96841.59;5031801;28;20406;-79
2021/01/20 05:18:49;;;;;;;0.00;0.00;;;;;;;9.18;100.00;96836.47;5031480;28;20048;-79
2021/01/20 05:22:05;;;;;;;0.00;0.00;;;;;;;9.16;100.00;96827.94;5031418;28;20052;-80
2021/01/20 05:25:09;;;;;;;0.00;0.00;;;;;;;9.19;100.00;96831.66;4999694;28;20406;-80
2021/01/20 05:28:23;;;;;;;0.00;0.00;;;;;;;9.16;100.00;96827.94;5011891;28;20049;-81
2021/01/20 05:31:27;;;;;;;0.08;0.00;;;;;;;9.10;100.00;96830.09;5011707;28;20056;-81
2021/01/20 05:34:32;;;;;;;0.05;0.00;;;;;;;9.12;100.00;96821.97;5011432;28;20049;-80
2021/01/20 05:37:46;;;;;;;0.00;0.00;;;;;;;9.11;100.00;96828.06;5011913;28;20053;-80
2021/01/20 05:40:49;;;;;;;0.00;0.00;;;;;;;9.16;100.00;96827.94;5011640;28;20061;-81
2021/01/20 05:44:11;;;;;;;0.00;0.00;;;;;;;9.18;100.00;96819.09;4999566;28;20045;-81
2021/01/20 05:47:15;;;;;;;0.00;0.00;;;;;;;9.20;100.00;96824.84;4999746;28;20525;-80
2021/01/20 05:50:18;;;;;;;0.00;0.00;;;;;;;9.20;100.00;96824.09;4999539;28;20053;-78
2021/01/20 05:53:22;;;;;;;0.00;0.00;;;;;;;9.21;100.00;96815.22;5011842;28;20053;-78
2021/01/20 05:56:27;;;;;;;0.00;0.00;;;;;;;9.22;100.00;96810.41;5014797;28;20121;-79
2021/01/20 05:59:30;;;;;;;0.00;0.00;;;;;;;9.23;100.00;96820.22;5002955;28;20057;-78
2021/01/20 06:02:34;;;;;;;0.00;0.00;;;;;;;9.26;100.00;96821.91;5015296;28;20045;-78
2021/01/20 06:05:38;;;;;;;0.00;0.00;;;;;;;9.29;100.00;96806.97;5014870;28;20053;-78
2021/01/20 06:08:42;;;;;;;0.00;0.00;;;;;;;9.27;100.00;96806.75;5014876;28;20426;-77
2021/01/20 06:11:46;;;;;;;0.00;0.00;;;;;;;9.27;100.00;96804.00;5014744;28;20057;-77
2021/01/20 06:14:50;;;;;;;0.00;0.00;;;;;;;9.29;100.00;96796.59;5014757;28;20040;-78
2021/01/20 06:17:56;;;;;;;0.10;0.10;;;;;;;9.31;100.00;96793.28;5014407;28;20045;-79
2021/01/20 06:20:59;;;;;;;0.00;0.00;;;;;;;9.31;100.00;96790.50;5002713;28;20049;-80
2021/01/20 06:24:13;;;;;;;0.00;0.00;;;;;;;9.33;100.00;96790.72;5014793;28;20056;-82
2021/01/20 06:27:31;;;;;;;0.00;0.00;;;;;;;9.35;100.00;96793.69;5033853;28;20052;-80
2021/01/20 06:30:37;;;;;;;0.00;0.00;;;;;;;9.35;100.00;96791.66;5034366;28;20044;-80
2021/01/20 06:33:41;;;;;;;0.00;0.00;;;;;;;9.37;100.00;96786.31;5034171;28;20048;-78
2021/01/20 06:36:45;;;;;;;0.00;0.00;;;;;;;9.37;100.00;96786.31;5033748;28;20405;-78
2021/01/20 06:39:48;;;;;;;0.00;0.00;;;;;;;9.37;100.00;96780.75;5034136;28;20049;-79
2021/01/20 06:42:53;;;;;;;0.00;0.00;;;;;;;9.40;100.00;96767.81;5034099;28;20053;-82
2021/01/20 06:46:11;;;;;;;0.00;0.00;;;;;;;9.42;100.00;96773.56;5022181;28;20052;-78
2021/01/20 06:49:15;;;;;;;0.00;0.00;;;;;;;9.40;100.00;96773.38;5034532;28;20057;-78
2021/01/20 06:52:18;;;;;;;0.00;0.00;;;;;;;9.40;100.00;96767.81;5038450;28;20524;-77
2021/01/20 06:55:35;;;;;;;0.00;0.00;;;;;;;9.44;100.00;96768.22;5035385;28;20072;-78
2021/01/20 06:58:38;;;;;;;0.00;0.00;;;;;;;9.44;100.00;96762.66;5036028;28;20053;-79
2021/01/20 07:01:42;;;;;;;0.00;0.00;;;;;;;9.43;100.00;96755.63;5034535;28;20076;-79
2021/01/20 07:04:49;;;;;;;0.00;0.00;;;;;;;9.43;100.00;96758.38;5033824;28;20061;-80
2021/01/20 07:07:56;;;;;;;0.00;0.00;;;;;;;9.43;100.00;96741.72;5032857;28;20052;-80
2021/01/20 07:11:03;;;;;;;0.00;0.00;;;;;;;9.42;100.00;96743.03;5021137;28;20060;-80
2021/01/20 07:14:28;;;;;;;0.00;0.00;;;;;;;9.42;100.00;96743.75;5021306;28;20406;-81
2021/01/20 07:17:35;;;;;;;0.00;0.00;;;;;;;9.45;100.00;96750.25;5021090;28;20048;-79
2021/01/20 07:20:43;;;;;;;0.00;0.00;;;;;;;9.43;100.00;96741.72;5020971;28;20417;-79
2021/01/20 07:23:47;;;;;;;0.00;0.00;;;;;;;9.41;100.00;96747.84;5020902;28;20060;-79
2021/01/20 07:26:50;;;;;;;0.00;0.00;;;;;;;9.41;100.00;96745.06;5020869;28;20049;-79
2021/01/20 07:29:53;;;;;;;0.00;0.00;;;;;;;9.42;100.00;96743.75;5021023;28;20513;-79
2021/01/20 07:32:57;;;;;;;0.00;0.00;;;;;;;9.42;100.00;96738.19;5033220;28;20532;-79
2021/01/20 07:36:18;;;;;;;0.00;0.00;;;;;;;9.40;100.00;96735.22;5032997;28;20393;-79
2021/01/20 07:39:24;;;;;;;0.00;0.00;;;;;;;9.37;100.00;96741.13;5020678;28;20060;-79
2021/01/20 07:42:38;;;;;;;0.00;0.00;;;;;;;9.35;100.00;96740.94;5032504;28;20120;-80
2021/01/20 07:45:44;;;;;;;0.00;0.00;;;;;;;9.37;100.00;96746.69;5032947;28;20121;-80
2021/01/20 07:48:49;;;;;;;0.00;0.00;;;;;;;9.38;100.00;96737.03;5020391;28;20061;-79
2021/01/20 07:52:19;;;;;;;0.00;0.00;;;;;;;9.37;100.00;96741.88;5020728;28;20052;-79
2021/01/20 07:55:22;;;;;;;0.00;0.00;;;;;;;9.36;100.00;96729.25;5032677;28;20060;-80
2021/01/20 07:58:29;;;;;;;0.00;0.00;;;;;;;9.36;100.00;96726.50;5020449;28;20068;-80
2021/01/20 08:01:32;;;;;;;0.00;0.00;;;;;;;9.37;100.00;96719.66;5020458;28;20049;-79
2021/01/20 08:04:36;;;;;;;0.00;0.00;;;;;;;9.39;100.00;96728.19;5011724;28;20065;-80
2021/01/20 08:07:40;;;;;;;0.00;0.00;;;;;;;9.38;100.00;96726.69;5012939;28;20072;-80
2021/01/20 08:10:44;;;;;;;0.00;0.00;;;;;;;9.40;100.00;96717.84;5012731;28;20061;-80
2021/01/20 08:13:50;;;;;;;0.00;0.00;;;;;;;9.42;100.00;96721.53;5011818;28;20057;-80
2021/01/20 08:16:53;;;;;;;0.00;0.00;;;;;;;9.41;100.00;96713.75;5006055;28;20037;-80
2021/01/20 08:19:57;;;;;;;0.00;0.00;;;;;;;9.43;100.00;96711.19;5032365;28;20401;-80
2021/01/20 08:23:03;;;;;;;0.00;0.00;;;;;;;9.45;100.00;96714.16;5027221;28;20664;-79
2021/01/20 08:26:07;;;;;;;0.00;0.00;;;;;;;9.46;100.00;96704.53;5000184;28;20048;-79
2021/01/20 08:29:12;;;;;;;0.00;0.00;;;;;;;9.44;100.00;96707.13;5012359;28;20049;-79
2021/01/20 08:32:16;;;;;;;0.00;0.00;;;;;;;9.44;100.00;96696.00;5012469;28;20044;-80
2021/01/20 08:35:31;;;;;;;0.00;0.00;;;;;;;9.46;100.00;96701.75;5012587;28;20053;-80
2021/01/20 08:38:35;;;;;;;0.00;0.00;;;;;;;9.47;100.00;96697.69;5013477;28;20053;-81
2021/01/20 08:41:38;;;;;;;0.00;0.00;;;;;;;9.48;100.00;96690.84;5011122;28;20525;-80
2021/01/20 08:45:08;;;;;;;0.00;0.00;;;;;;;9.48;100.00;96685.28;5012090;28;20073;-83
2021/01/20 08:48:13;;;;;;;0.00;0.00;;;;;;;9.45;100.00;96678.03;5011964;28;20065;-82
2021/01/20 08:51:18;;;;;;;0.00;0.00;;;;;;;9.50;100.00;96675.13;5012243;28;20073;-82
2021/01/20 08:54:22;;;;;;;0.00;0.00;;;;;;;9.55;100.00;96665.88;5012417;28;20421;-83
2021/01/20 08:57:26;;;;;;;0.00;0.00;;;;;;;9.60;100.00;96664.25;5012518;28;20049;-79
2021/01/20 09:00:40;;;;;;;0.00;0.00;;;;;;;9.63;100.00;96652.06;5012229;28;20053;-79
2021/01/20 09:03:54;;;;;;;0.00;0.00;;;;;;;9.66;100.00;96656.50;5012817;28;20057;-79
2021/01/20 09:06:58;;;;;;;0.00;0.00;;;;;;;9.68;100.00;96656.72;5028820;28;20052;-80
2021/01/20 09:10:01;;;;;;;0.00;0.00;;;;;;;9.67;100.00;96646.91;5031883;28;20502;-82
2021/01/20 09:13:05;;;;;;;0.00;0.00;;;;;;;9.70;100.00;96657.66;5030774;28;20052;-81
2021/01/20 09:16:08;;;;;;;0.00;0.00;;;;;;;9.72;100.00;96654.34;5031635;28;20049;-81
2021/01/20 09:19:11;;;;;;;0.00;0.00;;;;;;;9.72;100.00;96640.44;5018951;28;20053;-80
2021/01/20 09:22:15;;;;;;;0.00;0.00;;;;;;;9.70;100.00;96634.69;5031895;28;20048;-81
2021/01/20 09:25:18;;;;;;;0.00;0.00;;;;;;;9.71;100.00;96636.16;5031835;28;20117;-81
2021/01/20 09:28:22;;;;;;;0.00;0.00;;;;;;;9.68;100.00;96634.50;5031793;28;20105;-81
2021/01/20 09:31:26;;;;;;;0.00;0.00;;;;;;;9.65;100.00;96627.25;5034070;28;20064;-81
2021/01/20 09:34:29;;;;;;;0.00;0.00;;;;;;;9.68;100.00;96623.38;5035499;28;20048;-81
2021/01/20 09:37:33;;;;;;;0.00;0.00;;;;;;;9.69;100.00;96622.84;5035635;28;20049;-81
2021/01/20 09:40:36;;;;;;;0.00;0.00;;;;;;;9.70;100.00;96612.47;5035337;28;20060;-81
2021/01/20 09:43:39;;;;;;;0.00;0.00;;;;;;;9.72;100.00;96621.00;5035000;28;20056;-83
2021/01/20 09:46:43;;;;;;;0.00;0.00;;;;;;;9.74;100.00;96610.81;5033798;28;20049;-83
2021/01/20 09:49:46;;;;;;;0.00;0.00;;;;;;;9.77;100.00;96595.06;5022599;28;20057;-81
2021/01/20 09:52:50;;;;;;;0.00;0.00;;;;;;;9.79;100.00;96592.47;5022834;28;20136;-82
2021/01/20 09:55:53;;;;;;;0.00;0.00;;;;;;;9.80;100.00;96594.72;5035472;28;20056;-82
2021/01/20 09:58:56;;;;;;;0.00;0.00;;;;;;;9.83;100.00;96581.78;5022820;28;20052;-83
2021/01/20 10:02:00;;;;;;;0.00;0.00;;;;;;;9.82;100.00;96585.84;5022934;28;20060;-83
2021/01/20 10:05:05;;;;;;;0.00;0.00;;;;;;;9.83;100.00;96571.38;5035032;28;20053;-83
2021/01/20 10:08:08;;;;;;;0.00;0.00;;;;;;;9.85;100.00;96579.19;5034799;28;20052;-83
2021/01/20 10:11:12;;;;;;;0.00;0.00;;;;;;;9.84;100.00;96569.34;5022850;28;20056;-82
2021/01/20 10:14:17;;;;;;;0.00;0.00;;;;;;;9.87;100.00;96571.03;5035612;28;20048;-84
2021/01/20 10:17:20;;;;;;;0.00;0.00;;;;;;;9.93;100.00;96557.72;5023531;28;20076;-85
2021/01/20 10:20:24;;;;;;;0.00;0.00;;;;;;;10.02;100.00;96551.63;5035029;28;20056;-82
2021/01/20 10:23:27;;;;;;;0.00;0.00;;;;;;;10.03;100.00;96544.03;5022217;28;20052;-80
2021/01/20 10:26:30;;;;;;;0.00;0.00;;;;;;;10.03;100.00;96552.38;5034374;28;20068;-80
2021/01/20 10:29:34;;;;;;;0.00;0.00;;;;;;;10.00;100.00;96545.88;5022140;28;20052;-80
2021/01/20 10:32:37;;;;;;;0.00;0.00;;;;;;;10.01;100.00;96550.13;5034551;28;20052;-81
2021/01/20 10:35:40;;;;;;;0.00;0.00;;;;;;;9.99;100.00;96538.09;5034371;28;20524;-82
2021/01/20 10:38:44;;;;;;;0.00;0.00;;;;;;;9.95;100.00;96521.78;5034587;28;20508;-82
2021/01/20 10:41:47;;;;;;;0.00;0.00;;;;;;;9.93;100.00;96529.94;5033118;28;20068;-82
2021/01/20 10:44:51;;;;;;;0.00;0.00;;;;;;;9.92;100.00;96523.63;5034584;28;20048;-81
2021/01/20 10:47:54;;;;;;;0.00;0.00;;;;;;;9.87;100.00;96521.03;5034105;28;20045;-82
2021/01/20 10:50:57;;;;;;;0.00;0.00;;;;;;;9.86;100.00;96511.19;5034364;28;20068;-83
2021/01/20 10:54:02;;;;;;;0.00;0.00;;;;;;;9.83;100.00;96509.53;5022157;28;20060;-82
2021/01/20 10:57:06;;;;;;;0.00;0.00;;;;;;;9.81;100.00;96501.00;5034024;28;20398;-81
2021/01/20 11:00:10;;;;;;;0.00;0.00;;;;;;;9.81;100.00;96489.88;5033119;28;20049;-82
2021/01/20 11:03:14;;;;;;;0.00;0.00;;;;;;;9.80;100.00;96489.13;5032914;28;20053;-81
2021/01/20 11:06:17;;;;;;;0.00;0.00;;;;;;;9.79;100.00;96492.44;5033691;28;20049;-81
2021/01/20 11:09:20;;;;;;;0.00;0.00;;;;;;;9.76;100.00;96476.91;5033839;28;20056;-81
2021/01/20 11:12:23;;;;;;;0.00;0.00;;;;;;;9.78;100.00;96471.53;5033814;28;20052;-80
2021/01/20 11:15:27;;;;;;;0.00;0.00;;;;;;;9.80;100.00;96469.69;5011278;28;20041;-81
2021/01/20 11:18:34;;;;;;;0.00;0.00;;;;;;;9.87;100.00;96465.44;5013507;28;20506;-80
2021/01/20 11:21:37;;;;;;;0.00;0.00;;;;;;;9.93;100.00;96447.28;5012803;28;20053;-80
2021/01/20 11:24:40;;;;;;;0.00;0.00;;;;;;;9.99;100.00;96457.47;5011961;28;20057;-82
2021/01/20 11:27:45;;;;;;;0.00;0.00;;;;;;;9.99;100.00;96443.56;5012517;28;20084;-81
2021/01/20 11:30:50;;;;;;;0.00;0.00;;;;;;;9.97;100.00;96430.22;5013576;28;20056;-82
2021/01/20 11:33:54;;;;;;;0.00;0.00;;;;;;;9.97;100.00;96427.47;5013610;28;20044;-82
2021/01/20 11:36:57;;;;;;;0.00;0.00;;;;;;;9.98;100.00;96420.63;5012617;28;20052;-80
2021/01/20 11:40:03;;;;;;;0.00;0.00;;;;;;;9.96;100.00;96422.47;5013451;28;20442;-82
2021/01/20 11:43:07;;;;;;;0.00;0.00;;;;;;;9.96;100.00;96406.53;5013171;28;20057;-80
2021/01/20 11:46:11;;;;;;;0.00;0.00;;;;;;;9.97;100.00;96413.56;5012617;28;20402;-82
2021/01/20 11:49:14;;;;;;;0.00;0.00;;;;;;;9.92;100.00;96400.56;5012463;28;20398;-82
2021/01/20 11:52:18;;;;;;;0.00;0.00;;;;;;;9.89;100.00;96396.16;5011955;28;20053;-81
2021/01/20 11:55:22;;;;;;;0.00;0.00;;;;;;;9.88;100.00;96386.31;5013333;28;20065;-80
2021/01/20 11:58:26;;;;;;;0.00;0.00;;;;;;;9.86;100.00;96391.69;5012952;28;20402;-81
2021/01/20 12:01:34;;;;;;;0.00;0.00;;;;;;;9.84;100.00;96383.16;5012858;28;20060;-83
2021/01/20 12:04:37;;;;;;;0.00;0.00;;;;;;;9.84;100.00;96377.59;5012500;28;20044;-84
2021/01/20 12:07:43;;;;;;;0.00;0.00;;;;;;;9.83;100.00;96365.03;5012925;28;20141;-83
2021/01/20 12:10:46;;;;;;;0.00;0.00;;;;;;;9.84;100.00;96372.03;5012931;28;20056;-83
2021/01/20 12:13:50;;;;;;;0.00;0.00;;;;;;;9.82;100.00;96350.38;5012229;28;20052;-84
2021/01/20 12:16:53;;;;;;;0.00;0.00;;;;;;;9.82;100.00;96349.63;5012462;28;20114;-82
2021/01/20 12:19:57;;;;;;;0.00;0.00;;;;;;;9.83;100.00;96345.56;5012347;28;20061;-80
2021/01/20 12:23:00;;;;;;;0.00;0.00;;;;;;;9.82;100.00;96341.28;5012835;28;20048;-81
2021/01/20 12:26:03;;;;;;;0.00;0.00;;;;;;;9.83;100.00;96331.66;5012847;28;20061;-82
2021/01/20 12:29:07;;;;;;;0.00;0.00;;;;;;;9.81;100.00;96329.44;5012075;28;20524;-84
2021/01/20 12:32:10;;;;;;;0.00;0.00;;;;;;;9.82;100.00;96333.69;5012593;28;20065;-79
2021/01/20 12:35:13;;;;;;;0.03;0.00;;;;;;;9.84;100.00;96322.03;5011873;28;20057;-81
2021/01/20 12:38:17;;;;;;;0.10;0.10;;;;;;;9.84;100.00;96313.69;5012844;28;20517;-80
2021/01/20 12:41:20;;;;;;;0.00;0.00;;;;;;;9.80;100.00;96299.44;5012455;28;20513;-81
2021/01/20 12:44:23;;;;;;;0.00;0.00;;;;;;;9.78;100.00;96300.00;5012602;28;20048;-79
2021/01/20 12:47:26;;;;;;;0.00;0.00;;;;;;;9.79;100.00;96281.25;5011703;28;20375;-78
2021/01/20 12:50:30;;;;;;;0.00;0.00;;;;;;;9.80;100.00;96274.41;5000327;28;20049;-79
2021/01/20 12:53:33;;;;;;;0.00;0.00;;;;;;;9.80;100.00;96277.19;5012795;28;20053;-79
2021/01/20 12:56:36;;;;;;;0.00;0.00;;;;;;;9.76;100.00;96276.84;5012384;28;20049;-77
2021/01/20 12:59:40;;;;;;;0.00;0.00;;;;;;;9.73;100.00;96272.38;5012560;28;20057;-78
2021/01/20 13:02:43;;;;;;;0.00;0.00;;;;;;;9.69;100.00;96258.88;5007797;28;20064;-78
2021/01/20 13:05:46;;;;;;;0.00;0.00;;;;;;;9.69;100.00;96272.75;5021773;28;20076;-78
2021/01/20 13:08:50;;;;;;;0.00;0.00;;;;;;;9.70;100.00;96240.16;5004095;28;20061;-78
2021/01/20 13:11:53;;;;;;;0.00;0.00;;;;;;;9.69;100.00;96238.69;4996516;28;20049;-78
2021/01/20 13:14:56;;;;;;;0.00;0.00;;;;;;;9.64;100.00;96237.56;4996827;28;20049;-78
2021/01/20 13:18:00;;;;;;;0.00;0.00;;;;;;;9.65;100.00;96238.31;4997015;28;20076;-78
2021/01/20 13:21:05;;;;;;;0.00;0.00;;;;;;;9.66;100.00;96228.66;4996557;28;20049;-79
2021/01/20 13:24:08;;;;;;;0.00;0.00;;;;;;;9.69;100.00;96222.00;4983202;28;20714;-80
2021/01/20 13:27:12;;;;;;;0.00;0.00;;;;;;;9.72;100.00;96226.47;4987474;28;20050;-79
2021/01/20 13:30:16;;;;;;;0.00;0.00;;;;;;;9.69;100.00;96222.00;4976970;28;20061;-79
2021/01/20 13:33:19;;;;;;;0.00;0.00;;;;;;;9.66;100.00;96217.56;4976979;28;20061;-79
2021/01/20 13:36:23;;;;;;;0.00;0.00;;;;;;;9.62;100.00;96197.75;4976538;28;20062;-79
2021/01/20 13:39:26;;;;;;;0.00;0.00;;;;;;;9.59;100.00;96190.56;4976978;28;20049;-79
2021/01/20 13:42:30;;;;;;;0.00;0.00;;;;;;;9.58;100.00;96180.72;4987160;28;20588;-80
2021/01/20 13:45:33;;;;;;;0.00;0.00;;;;;;;9.56;100.00;96170.19;4977059;28;20058;-79
2021/01/20 13:48:37;;;;;;;0.00;0.00;;;;;;;9.56;100.00;96163.88;4976677;28;20400;-79
2021/01/20 13:51:40;;;;;;;0.00;0.00;;;;;;;9.57;100.00;96162.59;4976552;28;20050;-77
2021/01/20 13:54:43;;;;;;;0.00;0.00;;;;;;;9.55;100.00;96157.56;4976342;28;20046;-77
2021/01/20 13:57:47;;;;;;;0.00;0.00;;;;;;;9.53;100.00;96148.34;4976550;28;20062;-77
2021/01/20 14:00:50;;;;;;;0.00;0.00;;;;;;;9.53;100.00;96131.69;4968617;28;20045;-75
2021/01/20 14:03:53;;;;;;;0.00;0.00;;;;;;;9.50;100.00;96133.53;4936974;28;20865;-75
2021/01/20 14:07:01;;;;;;;0.00;0.00;;;;;;;9.51;100.00;96128.69;4935203;28;20583;-76
2021/01/20 14:10:05;;;;;;;0.00;0.00;;;;;;;9.50;100.00;96121.69;4934671;28;21122;-76
2021/01/20 14:13:08;;;;;;;0.00;0.00;;;;;;;9.54;100.00;96117.22;4934822;28;20265;-76
2021/01/20 14:16:12;;;;;;;0.00;0.00;;;;;;;9.52;100.00;96119.09;4958887;28;20514;-78
2021/01/20 14:19:15;;;;;;;0.00;0.00;;;;;;;9.55;100.00;96117.97;4978123;28;20045;-81
2021/01/20 14:23:15;;;;;;;0.00;0.00;;;;;;;9.55;100.00;96104.81;4978713;28;20069;-83
2021/01/20 14:27:05;;;;;;;0.00;0.00;;;;;;;9.56;100.00;96097.97;4979435;28;20054;-82
2021/01/20 14:30:38;;;;;;;0.00;0.00;;;;;;;9.53;100.00;96098.34;4982654;28;20042;-82
2021/01/20 14:33:55;;;;;;;0.00;0.00;;;;;;;9.55;100.00;96098.53;4983836;28;20062;-81